QFA58N YSSY-YMML
Flight info
| Callsign | QFA58N |
|---|---|
| Flight time | 1h 13m |
| Altitude | 40000 |
| Route | WOL H65 LEECE Q29 ML |
| Aircraft | A333/H-SDE3GHIJ2J3J5M1RVWXY/LB2D1 |
Departure
| Time | 2026-05-06 12:41 |
|---|---|
| Airport | Sydney Kingsford Smith International Airport (YSSY) |
Arrival
| Time | 2026-05-06 13:55 |
|---|---|
| Airport | Melbourne Airport (YMML) |
| Time | Latitude | Longitude | Altitude | Speed | Heading |
|---|---|---|---|---|---|
| 2026-05-06 11:32 | -33.93831 | 151.16839 | 28 ft | 0 kts | 70° |
| 2026-05-06 12:10 | -33.93834 | 151.16829 | 30 ft | 3 kts | 70° |
| 2026-05-06 12:10 | -33.93840 | 151.16808 | 30 ft | 3 kts | 70° |
| 2026-05-06 12:10 | -33.93847 | 151.16787 | 30 ft | 3 kts | 72° |
| 2026-05-06 12:10 | -33.93848 | 151.16763 | 29 ft | 3 kts | 120° |
| 2026-05-06 12:11 | -33.93835 | 151.16746 | 30 ft | 1 kts | 160° |
| 2026-05-06 12:11 | -33.93834 | 151.16746 | 30 ft | 0 kts | 161° |
| 2026-05-06 12:11 | -33.93835 | 151.16746 | 30 ft | 0 kts | 161° |
| 2026-05-06 12:16 | -33.93838 | 151.16747 | 30 ft | 3 kts | 165° |
| 2026-05-06 12:16 | -33.93874 | 151.16755 | 29 ft | 7 kts | 169° |
| 2026-05-06 12:16 | -33.93932 | 151.16771 | 28 ft | 10 kts | 165° |
| 2026-05-06 12:16 | -33.94010 | 151.16797 | 28 ft | 14 kts | 162° |
| 2026-05-06 12:17 | -33.94050 | 151.16881 | 29 ft | 14 kts | 83° |
| 2026-05-06 12:17 | -33.94024 | 151.17007 | 27 ft | 15 kts | 73° |
| 2026-05-06 12:17 | -33.94011 | 151.17060 | 29 ft | 2 kts | 73° |
| 2026-05-06 12:17 | -33.93999 | 151.17110 | 27 ft | 10 kts | 75° |
| 2026-05-06 12:18 | -33.93980 | 151.17195 | 24 ft | 16 kts | 75° |
| 2026-05-06 12:18 | -33.93949 | 151.17330 | 23 ft | 25 kts | 74° |
| 2026-05-06 12:18 | -33.93900 | 151.17539 | 26 ft | 26 kts | 74° |
| 2026-05-06 12:18 | -33.93867 | 151.17677 | 26 ft | 19 kts | 75° |
| 2026-05-06 12:19 | -33.93864 | 151.17724 | 27 ft | 7 kts | 103° |
| 2026-05-06 12:19 | -33.93903 | 151.17773 | 26 ft | 5 kts | 156° |
| 2026-05-06 12:19 | -33.93909 | 151.17776 | 28 ft | 0 kts | 157° |
| 2026-05-06 12:19 | -33.93909 | 151.17777 | 28 ft | 0 kts | 157° |
| 2026-05-06 12:20 | -33.93912 | 151.17778 | 30 ft | 6 kts | 157° |
| 2026-05-06 12:20 | -33.94023 | 151.17812 | 27 ft | 21 kts | 168° |
| 2026-05-06 12:20 | -33.94126 | 151.17838 | 27 ft | 24 kts | 168° |
| 2026-05-06 12:20 | -33.94279 | 151.17876 | 28 ft | 21 kts | 168° |
| 2026-05-06 12:21 | -33.94412 | 151.17908 | 28 ft | 18 kts | 177° |
| 2026-05-06 12:21 | -33.93831 | 151.16839 | 24 ft | 0 kts | 70° |
| 2026-05-06 12:27 | -33.93836 | 151.16820 | 26 ft | 2 kts | 70° |
| 2026-05-06 12:27 | -33.93842 | 151.16802 | 30 ft | 2 kts | 70° |
| 2026-05-06 12:27 | -33.93848 | 151.16783 | 30 ft | 3 kts | 81° |
| 2026-05-06 12:27 | -33.93847 | 151.16760 | 29 ft | 3 kts | 127° |
| 2026-05-06 12:28 | -33.93837 | 151.16748 | 30 ft | 0 kts | 159° |
| 2026-05-06 12:28 | -33.93843 | 151.16751 | 28 ft | 2 kts | 159° |
| 2026-05-06 12:28 | -33.93844 | 151.16751 | 28 ft | 0 kts | 159° |
| 2026-05-06 12:29 | -33.93853 | 151.16754 | 30 ft | 4 kts | 165° |
| 2026-05-06 12:29 | -33.93889 | 151.16762 | 28 ft | 6 kts | 169° |
| 2026-05-06 12:29 | -33.93979 | 151.16787 | 28 ft | 18 kts | 165° |
| 2026-05-06 12:30 | -33.94049 | 151.16879 | 29 ft | 19 kts | 85° |
| 2026-05-06 12:30 | -33.94017 | 151.17035 | 28 ft | 20 kts | 73° |
| 2026-05-06 12:30 | -33.93981 | 151.17184 | 26 ft | 10 kts | 75° |
| 2026-05-06 12:30 | -33.93977 | 151.17200 | 23 ft | 0 kts | 75° |
| 2026-05-06 12:31 | -33.93977 | 151.17201 | 23 ft | 0 kts | 75° |
| 2026-05-06 12:31 | -33.93976 | 151.17207 | 23 ft | 3 kts | 75° |
| 2026-05-06 12:32 | -33.93953 | 151.17310 | 24 ft | 21 kts | 75° |
| 2026-05-06 12:32 | -33.93906 | 151.17511 | 25 ft | 29 kts | 73° |
| 2026-05-06 12:32 | -33.93864 | 151.17690 | 26 ft | 14 kts | 79° |
| 2026-05-06 12:32 | -33.93946 | 151.17793 | 29 ft | 24 kts | 166° |
| 2026-05-06 12:33 | -33.94111 | 151.17836 | 27 ft | 24 kts | 168° |
| 2026-05-06 12:33 | -33.94260 | 151.17873 | 28 ft | 19 kts | 168° |
| 2026-05-06 12:33 | -33.94395 | 151.17905 | 28 ft | 20 kts | 174° |
| 2026-05-06 12:33 | -33.94518 | 151.17893 | 27 ft | 15 kts | 171° |
| 2026-05-06 12:34 | -33.94591 | 151.17909 | 28 ft | 12 kts | 178° |
| 2026-05-06 12:34 | -33.94723 | 151.17935 | 30 ft | 23 kts | 167° |
| 2026-05-06 12:34 | -33.94875 | 151.17974 | 27 ft | 22 kts | 168° |
| 2026-05-06 12:34 | -33.95003 | 151.18007 | 28 ft | 17 kts | 168° |
| 2026-05-06 12:35 | -33.95128 | 151.18041 | 30 ft | 20 kts | 161° |
| 2026-05-06 12:35 | -33.95165 | 151.18177 | 30 ft | 19 kts | 80° |
| 2026-05-06 12:35 | -33.95128 | 151.18387 | 30 ft | 24 kts | 78° |
| 2026-05-06 12:35 | -33.95117 | 151.18507 | 30 ft | 17 kts | 96° |
| 2026-05-06 12:36 | -33.95215 | 151.18649 | 30 ft | 28 kts | 141° |
| 2026-05-06 12:36 | -33.95395 | 151.18742 | 27 ft | 29 kts | 167° |
| 2026-05-06 12:36 | -33.95594 | 151.18794 | 28 ft | 29 kts | 168° |
| 2026-05-06 12:36 | -33.95759 | 151.18836 | 29 ft | 24 kts | 168° |
| 2026-05-06 12:37 | -33.95917 | 151.18876 | 31 ft | 23 kts | 167° |
| 2026-05-06 12:37 | -33.96073 | 151.18919 | 30 ft | 24 kts | 167° |
| 2026-05-06 12:37 | -33.96236 | 151.18961 | 30 ft | 24 kts | 168° |
| 2026-05-06 12:37 | -33.96403 | 151.19002 | 26 ft | 24 kts | 168° |
| 2026-05-06 12:38 | -33.96555 | 151.19041 | 24 ft | 19 kts | 168° |
| 2026-05-06 12:38 | -33.96670 | 151.19070 | 25 ft | 17 kts | 170° |
| 2026-05-06 12:38 | -33.96790 | 151.19072 | 24 ft | 18 kts | 181° |
| 2026-05-06 12:38 | -33.96909 | 151.19090 | 24 ft | 17 kts | 168° |
| 2026-05-06 12:39 | -33.97023 | 151.19119 | 27 ft | 17 kts | 168° |
| 2026-05-06 12:39 | -33.97119 | 151.19180 | 29 ft | 14 kts | 115° |
| 2026-05-06 12:39 | -33.97117 | 151.19299 | 26 ft | 14 kts | 76° |
| 2026-05-06 12:39 | -33.97058 | 151.19367 | 28 ft | 11 kts | 9° |
| 2026-05-06 12:40 | -33.97020 | 151.19364 | 26 ft | 0 kts | 348° |
| 2026-05-06 12:40 | -33.96968 | 151.19350 | 24 ft | 35 kts | 348° |
| 2026-05-06 12:41 | -33.96440 | 151.19214 | 29 ft | 117 kts | 348° |
| 2026-05-06 12:41 | -33.95416 | 151.18948 | 148 ft | 175 kts | 346° |
| 2026-05-06 12:41 | -33.94198 | 151.18692 | 846 ft | 173 kts | 353° |
| 2026-05-06 12:41 | -33.93063 | 151.19020 | 1578 ft | 177 kts | 34° |
| 2026-05-06 12:42 | -33.92444 | 151.20323 | 2211 ft | 190 kts | 75° |
| 2026-05-06 12:42 | -33.92661 | 151.21900 | 2768 ft | 202 kts | 116° |
| 2026-05-06 12:42 | -33.93425 | 151.23337 | 3410 ft | 205 kts | 120° |
| 2026-05-06 12:42 | -33.93855 | 151.24946 | 4078 ft | 202 kts | 93° |
| 2026-05-06 12:43 | -33.93895 | 151.26644 | 4722 ft | 204 kts | 86° |
| 2026-05-06 12:43 | -33.93848 | 151.28366 | 5348 ft | 207 kts | 85° |
| 2026-05-06 12:43 | -33.93780 | 151.30178 | 5685 ft | 229 kts | 85° |
| 2026-05-06 12:43 | -33.93702 | 151.32228 | 5898 ft | 261 kts | 85° |
| 2026-05-06 12:44 | -33.93621 | 151.34519 | 6367 ft | 283 kts | 85° |
| 2026-05-06 12:44 | -33.93540 | 151.36924 | 7119 ft | 291 kts | 86° |
| 2026-05-06 12:44 | -33.93459 | 151.39383 | 7971 ft | 297 kts | 86° |
| 2026-05-06 12:44 | -33.93405 | 151.41031 | 8583 ft | 298 kts | 85° |
| 2026-05-06 12:45 | -33.93294 | 151.44359 | 9850 ft | 302 kts | 85° |
| 2026-05-06 12:45 | -33.93205 | 151.46933 | 10477 ft | 316 kts | 85° |
| 2026-05-06 12:45 | -33.94017 | 151.52385 | 11300 ft | 355 kts | 125° |
| 2026-05-06 12:46 | -33.95138 | 151.53873 | 11778 ft | 358 kts | 143° |
| 2026-05-06 12:46 | -33.97333 | 151.55240 | 12531 ft | 357 kts | 168° |
| 2026-05-06 12:46 | -33.99751 | 151.55408 | 13311 ft | 352 kts | 193° |
| 2026-05-06 12:46 | -34.02018 | 151.54364 | 14047 ft | 346 kts | 218° |
| 2026-05-06 12:47 | -34.03667 | 151.52327 | 14724 ft | 340 kts | 242° |
| 2026-05-06 12:47 | -34.04434 | 151.49671 | 15436 ft | 335 kts | 266° |
| 2026-05-06 12:47 | -34.04227 | 151.46893 | 16139 ft | 335 kts | 285° |
| 2026-05-06 12:47 | -34.03465 | 151.44228 | 16837 ft | 338 kts | 294° |
| 2026-05-06 12:48 | -34.02500 | 151.41628 | 17504 ft | 342 kts | 288° |
| 2026-05-06 12:48 | -34.02280 | 151.38773 | 18156 ft | 348 kts | 264° |
| 2026-05-06 12:48 | -34.03066 | 151.35990 | 18748 ft | 358 kts | 242° |
| 2026-05-06 12:48 | -34.04718 | 151.33760 | 19296 ft | 370 kts | 221° |
| 2026-05-06 12:49 | -34.07020 | 151.32234 | 19868 ft | 379 kts | 210° |
| 2026-05-06 12:49 | -34.09378 | 151.30812 | 20430 ft | 381 kts | 210° |
| 2026-05-06 12:49 | -34.11793 | 151.29428 | 20971 ft | 385 kts | 211° |
| 2026-05-06 12:49 | -34.14153 | 151.27909 | 21507 ft | 385 kts | 215° |
| 2026-05-06 12:50 | -34.16453 | 151.26212 | 22035 ft | 389 kts | 217° |
| 2026-05-06 12:50 | -34.18764 | 151.24472 | 22547 ft | 392 kts | 217° |
| 2026-05-06 12:50 | -34.21092 | 151.22787 | 23068 ft | 397 kts | 213° |
| 2026-05-06 12:50 | -34.23415 | 151.21008 | 23564 ft | 393 kts | 225° |
| 2026-05-06 12:51 | -34.25442 | 151.18776 | 23997 ft | 394 kts | 229° |
| 2026-05-06 12:51 | -34.27388 | 151.16440 | 24445 ft | 394 kts | 231° |
| 2026-05-06 12:51 | -34.29291 | 151.14040 | 24882 ft | 396 kts | 232° |
| 2026-05-06 12:51 | -34.31176 | 151.11611 | 25314 ft | 398 kts | 232° |
| 2026-05-06 12:52 | -34.33063 | 151.09153 | 25767 ft | 400 kts | 232° |
| 2026-05-06 12:52 | -34.34957 | 151.06672 | 26149 ft | 402 kts | 232° |
| 2026-05-06 12:52 | -34.36862 | 151.04169 | 26575 ft | 404 kts | 233° |
| 2026-05-06 12:52 | -34.38772 | 151.01655 | 27033 ft | 405 kts | 233° |
| 2026-05-06 12:53 | -34.40681 | 150.99140 | 27461 ft | 406 kts | 233° |
| 2026-05-06 12:53 | -34.42575 | 150.96640 | 27861 ft | 409 kts | 233° |
| 2026-05-06 12:53 | -34.44499 | 150.94097 | 28246 ft | 411 kts | 233° |
| 2026-05-06 12:53 | -34.46438 | 150.91533 | 28635 ft | 413 kts | 233° |
| 2026-05-06 12:54 | -34.48382 | 150.88961 | 29030 ft | 415 kts | 233° |
| 2026-05-06 12:54 | -34.50338 | 150.86371 | 29426 ft | 417 kts | 233° |
| 2026-05-06 12:54 | -34.52306 | 150.83763 | 29770 ft | 420 kts | 233° |
| 2026-05-06 12:54 | -34.54279 | 150.81146 | 30132 ft | 422 kts | 233° |
| 2026-05-06 12:55 | -34.56194 | 150.78448 | 30432 ft | 421 kts | 237° |
| 2026-05-06 12:55 | -34.57992 | 150.75638 | 30757 ft | 421 kts | 239° |
| 2026-05-06 12:55 | -34.59734 | 150.72782 | 31133 ft | 420 kts | 240° |
| 2026-05-06 12:55 | -34.61428 | 150.69944 | 31459 ft | 421 kts | 240° |
| 2026-05-06 12:56 | -34.63144 | 150.67047 | 31764 ft | 423 kts | 240° |
| 2026-05-06 12:56 | -34.64869 | 150.64136 | 32052 ft | 425 kts | 240° |
| 2026-05-06 12:56 | -34.66607 | 150.61216 | 32361 ft | 427 kts | 240° |
| 2026-05-06 12:56 | -34.68348 | 150.58304 | 32744 ft | 426 kts | 240° |
| 2026-05-06 12:57 | -34.70091 | 150.55399 | 33186 ft | 424 kts | 240° |
| 2026-05-06 12:57 | -34.71828 | 150.52508 | 33631 ft | 422 kts | 240° |
| 2026-05-06 12:57 | -34.73555 | 150.49631 | 34034 ft | 420 kts | 240° |
| 2026-05-06 12:57 | -34.75273 | 150.46766 | 34373 ft | 419 kts | 241° |
| 2026-05-06 12:58 | -34.76987 | 150.43904 | 34681 ft | 418 kts | 240° |
| 2026-05-06 12:58 | -34.78679 | 150.41076 | 34951 ft | 417 kts | 241° |
| 2026-05-06 12:58 | -34.80387 | 150.38218 | 35242 ft | 417 kts | 241° |
| 2026-05-06 12:58 | -34.82092 | 150.35363 | 35583 ft | 416 kts | 241° |
| 2026-05-06 12:59 | -34.83791 | 150.32514 | 35881 ft | 415 kts | 241° |
| 2026-05-06 12:59 | -34.85480 | 150.29678 | 36177 ft | 413 kts | 241° |
| 2026-05-06 12:59 | -34.87166 | 150.26844 | 36481 ft | 413 kts | 241° |
| 2026-05-06 12:59 | -34.88847 | 150.24018 | 36755 ft | 412 kts | 241° |
| 2026-05-06 13:00 | -34.90530 | 150.21191 | 37021 ft | 411 kts | 242° |
| 2026-05-06 13:00 | -34.92190 | 150.18399 | 37289 ft | 410 kts | 242° |
| 2026-05-06 13:00 | -34.93863 | 150.15583 | 37552 ft | 410 kts | 242° |
| 2026-05-06 13:00 | -34.95530 | 150.12771 | 37799 ft | 409 kts | 242° |
| 2026-05-06 13:01 | -34.97197 | 150.09959 | 38113 ft | 409 kts | 242° |
| 2026-05-06 13:01 | -34.98861 | 150.07148 | 38335 ft | 409 kts | 242° |
| 2026-05-06 13:01 | -35.00528 | 150.04330 | 38585 ft | 409 kts | 242° |
| 2026-05-06 13:01 | -35.02189 | 150.01523 | 38827 ft | 408 kts | 242° |
| 2026-05-06 13:02 | -35.03856 | 149.98703 | 39000 ft | 408 kts | 242° |
| 2026-05-06 13:02 | -35.05517 | 149.95890 | 39135 ft | 409 kts | 242° |
| 2026-05-06 13:02 | -35.07184 | 149.93063 | 39276 ft | 409 kts | 242° |
| 2026-05-06 13:02 | -35.08848 | 149.90238 | 39410 ft | 410 kts | 242° |
| 2026-05-06 13:03 | -35.10514 | 149.87411 | 39568 ft | 410 kts | 242° |
| 2026-05-06 13:03 | -35.12158 | 149.84617 | 39768 ft | 410 kts | 242° |
| 2026-05-06 13:03 | -35.13826 | 149.81782 | 39905 ft | 411 kts | 242° |
| 2026-05-06 13:03 | -35.15498 | 149.78937 | 40011 ft | 412 kts | 242° |
| 2026-05-06 13:04 | -35.17171 | 149.76086 | 40084 ft | 414 kts | 242° |
| 2026-05-06 13:04 | -35.20556 | 149.70308 | 40098 ft | 420 kts | 242° |
| 2026-05-06 13:05 | -35.23960 | 149.64501 | 40095 ft | 419 kts | 242° |
| 2026-05-06 13:05 | -35.27352 | 149.58706 | 40123 ft | 419 kts | 242° |
| 2026-05-06 13:06 | -35.30723 | 149.52931 | 40097 ft | 420 kts | 242° |
| 2026-05-06 13:06 | -35.34126 | 149.47090 | 40107 ft | 420 kts | 242° |
| 2026-05-06 13:07 | -35.37516 | 149.41263 | 40103 ft | 420 kts | 242° |
| 2026-05-06 13:07 | -35.40888 | 149.35458 | 40105 ft | 420 kts | 242° |
| 2026-05-06 13:08 | -35.44275 | 149.29616 | 40104 ft | 421 kts | 242° |
| 2026-05-06 13:08 | -35.47674 | 149.23742 | 40098 ft | 422 kts | 242° |
| 2026-05-06 13:09 | -35.51078 | 149.17845 | 40108 ft | 422 kts | 242° |
| 2026-05-06 13:09 | -35.54457 | 149.11993 | 40101 ft | 422 kts | 242° |
| 2026-05-06 13:10 | -35.57854 | 149.06099 | 40107 ft | 422 kts | 242° |
| 2026-05-06 13:10 | -35.61245 | 149.00201 | 40097 ft | 423 kts | 242° |
| 2026-05-06 13:11 | -35.64644 | 148.94280 | 40103 ft | 423 kts | 242° |
| 2026-05-06 13:11 | -35.68028 | 148.88374 | 40107 ft | 422 kts | 242° |
| 2026-05-06 13:12 | -35.71409 | 148.82455 | 40124 ft | 423 kts | 243° |
| 2026-05-06 13:12 | -35.74772 | 148.76569 | 40109 ft | 422 kts | 243° |
| 2026-05-06 13:13 | -35.78146 | 148.70656 | 40100 ft | 421 kts | 242° |
| 2026-05-06 13:13 | -35.81510 | 148.64748 | 40114 ft | 421 kts | 243° |
| 2026-05-06 13:14 | -35.84868 | 148.58837 | 40112 ft | 421 kts | 243° |
| 2026-05-06 13:14 | -35.88223 | 148.52919 | 40101 ft | 420 kts | 243° |
| 2026-05-06 13:15 | -35.91567 | 148.46991 | 40089 ft | 420 kts | 243° |
| 2026-05-06 13:15 | -35.94894 | 148.41074 | 40109 ft | 423 kts | 242° |
| 2026-05-06 13:16 | -35.98256 | 148.35086 | 40121 ft | 424 kts | 242° |
| 2026-05-06 13:16 | -36.01621 | 148.29091 | 40107 ft | 424 kts | 243° |
| 2026-05-06 13:17 | -36.04986 | 148.23086 | 40117 ft | 425 kts | 242° |
| 2026-05-06 13:17 | -36.08330 | 148.17111 | 40112 ft | 425 kts | 242° |
| 2026-05-06 13:18 | -36.11692 | 148.11089 | 40106 ft | 426 kts | 242° |
| 2026-05-06 13:18 | -36.15060 | 148.05063 | 40115 ft | 426 kts | 242° |
| 2026-05-06 13:19 | -36.18433 | 147.99028 | 40100 ft | 426 kts | 242° |
| 2026-05-06 13:19 | -36.21797 | 147.93000 | 40101 ft | 426 kts | 242° |
| 2026-05-06 13:20 | -36.25154 | 147.86972 | 40115 ft | 424 kts | 242° |
| 2026-05-06 13:20 | -36.28488 | 147.80975 | 40110 ft | 423 kts | 243° |
| 2026-05-06 13:21 | -36.31802 | 147.75000 | 40107 ft | 422 kts | 243° |
| 2026-05-06 13:21 | -36.35129 | 147.68986 | 40105 ft | 423 kts | 243° |
| 2026-05-06 13:22 | -36.38450 | 147.62961 | 40094 ft | 422 kts | 243° |
| 2026-05-06 13:22 | -36.41764 | 147.56937 | 40098 ft | 422 kts | 243° |
| 2026-05-06 13:23 | -36.45071 | 147.50912 | 40092 ft | 423 kts | 243° |
| 2026-05-06 13:23 | -36.48382 | 147.44877 | 39634 ft | 421 kts | 243° |
| 2026-05-06 13:23 | -36.50009 | 147.41914 | 39298 ft | 418 kts | 243° |
| 2026-05-06 13:24 | -36.51650 | 147.38918 | 38649 ft | 422 kts | 243° |
| 2026-05-06 13:24 | -36.53307 | 147.35880 | 37813 ft | 426 kts | 243° |
| 2026-05-06 13:24 | -36.54986 | 147.32799 | 37038 ft | 430 kts | 243° |
| 2026-05-06 13:24 | -36.56674 | 147.29704 | 36276 ft | 433 kts | 244° |
| 2026-05-06 13:25 | -36.58349 | 147.26631 | 35542 ft | 435 kts | 244° |
| 2026-05-06 13:25 | -36.60050 | 147.23513 | 34817 ft | 436 kts | 244° |
| 2026-05-06 13:25 | -36.61760 | 147.20378 | 34107 ft | 438 kts | 245° |
| 2026-05-06 13:25 | -36.63470 | 147.17239 | 33284 ft | 437 kts | 245° |
| 2026-05-06 13:26 | -36.65177 | 147.14098 | 32500 ft | 438 kts | 245° |
| 2026-05-06 13:26 | -36.66879 | 147.10963 | 31719 ft | 437 kts | 245° |
| 2026-05-06 13:26 | -36.68583 | 147.07826 | 31003 ft | 437 kts | 245° |
| 2026-05-06 13:26 | -36.70282 | 147.04693 | 30266 ft | 436 kts | 245° |
| 2026-05-06 13:27 | -36.71975 | 147.01568 | 29428 ft | 434 kts | 245° |
| 2026-05-06 13:27 | -36.73665 | 146.98448 | 28595 ft | 432 kts | 245° |
| 2026-05-06 13:27 | -36.75343 | 146.95343 | 27773 ft | 430 kts | 245° |
| 2026-05-06 13:27 | -36.77011 | 146.92258 | 27002 ft | 428 kts | 245° |
| 2026-05-06 13:28 | -36.78669 | 146.89188 | 26235 ft | 425 kts | 245° |
| 2026-05-06 13:28 | -36.80297 | 146.86168 | 25511 ft | 421 kts | 245° |
| 2026-05-06 13:28 | -36.81921 | 146.83162 | 24789 ft | 410 kts | 245° |
| 2026-05-06 13:28 | -36.83481 | 146.80289 | 24096 ft | 389 kts | 245° |
| 2026-05-06 13:29 | -36.84965 | 146.77565 | 23383 ft | 370 kts | 245° |
| 2026-05-06 13:29 | -36.86373 | 146.74964 | 22577 ft | 354 kts | 245° |
| 2026-05-06 13:29 | -36.87718 | 146.72456 | 21794 ft | 343 kts | 246° |
| 2026-05-06 13:29 | -36.89032 | 146.69989 | 21018 ft | 339 kts | 246° |
| 2026-05-06 13:30 | -36.90328 | 146.67530 | 20263 ft | 338 kts | 246° |
| 2026-05-06 13:30 | -36.91596 | 146.65126 | 19532 ft | 334 kts | 245° |
| 2026-05-06 13:30 | -36.92873 | 146.62719 | 18837 ft | 331 kts | 245° |
| 2026-05-06 13:30 | -36.94147 | 146.60333 | 18089 ft | 329 kts | 245° |
| 2026-05-06 13:31 | -36.95412 | 146.57966 | 17297 ft | 326 kts | 245° |
| 2026-05-06 13:31 | -36.96669 | 146.55617 | 16494 ft | 322 kts | 244° |
| 2026-05-06 13:31 | -36.97915 | 146.53300 | 15739 ft | 320 kts | 244° |
| 2026-05-06 13:31 | -36.99145 | 146.50999 | 14989 ft | 316 kts | 243° |
| 2026-05-06 13:32 | -37.00365 | 146.48718 | 14266 ft | 314 kts | 243° |
| 2026-05-06 13:32 | -37.01570 | 146.46462 | 13503 ft | 311 kts | 243° |
| 2026-05-06 13:32 | -37.02767 | 146.44219 | 12711 ft | 309 kts | 242° |
| 2026-05-06 13:32 | -37.03556 | 146.42742 | 12195 ft | 308 kts | 242° |
| 2026-05-06 13:33 | -37.05132 | 146.39780 | 11177 ft | 306 kts | 242° |
| 2026-05-06 13:33 | -37.06308 | 146.37570 | 10470 ft | 305 kts | 242° |
| 2026-05-06 13:33 | -37.07486 | 146.35352 | 9722 ft | 308 kts | 242° |
| 2026-05-06 13:33 | -37.08661 | 146.33142 | 9144 ft | 296 kts | 241° |
| 2026-05-06 13:34 | -37.09762 | 146.31092 | 8959 ft | 271 kts | 241° |
| 2026-05-06 13:34 | -37.10447 | 146.29813 | 8955 ft | 265 kts | 241° |
| 2026-05-06 13:34 | -37.11468 | 146.27885 | 8956 ft | 265 kts | 242° |
| 2026-05-06 13:34 | -37.12487 | 146.25956 | 8951 ft | 265 kts | 241° |
| 2026-05-06 13:35 | -37.13505 | 146.24031 | 8953 ft | 264 kts | 241° |
| 2026-05-06 13:35 | -37.14524 | 146.22106 | 8951 ft | 264 kts | 242° |
| 2026-05-06 13:35 | -37.15540 | 146.20186 | 8960 ft | 264 kts | 241° |
| 2026-05-06 13:35 | -37.16557 | 146.18264 | 8958 ft | 264 kts | 241° |
| 2026-05-06 13:36 | -37.17573 | 146.16345 | 8964 ft | 264 kts | 242° |
| 2026-05-06 13:36 | -37.18580 | 146.14442 | 8983 ft | 265 kts | 242° |
| 2026-05-06 13:36 | -37.19604 | 146.12511 | 8970 ft | 266 kts | 242° |
| 2026-05-06 13:36 | -37.20627 | 146.10571 | 8958 ft | 266 kts | 242° |
| 2026-05-06 13:37 | -37.21647 | 146.08638 | 8972 ft | 266 kts | 242° |
| 2026-05-06 13:37 | -37.22666 | 146.06706 | 8973 ft | 265 kts | 242° |
| 2026-05-06 13:37 | -37.23693 | 146.04770 | 8982 ft | 265 kts | 242° |
| 2026-05-06 13:37 | -37.24711 | 146.02842 | 8971 ft | 264 kts | 243° |
| 2026-05-06 13:38 | -37.25716 | 146.00929 | 8962 ft | 262 kts | 243° |
| 2026-05-06 13:38 | -37.26709 | 145.99042 | 8985 ft | 261 kts | 243° |
| 2026-05-06 13:38 | -37.27710 | 145.97137 | 8981 ft | 262 kts | 243° |
| 2026-05-06 13:38 | -37.28713 | 145.95225 | 8978 ft | 262 kts | 243° |
| 2026-05-06 13:39 | -37.29715 | 145.93317 | 8975 ft | 261 kts | 242° |
| 2026-05-06 13:39 | -37.30718 | 145.91408 | 8993 ft | 262 kts | 242° |
| 2026-05-06 13:39 | -37.31717 | 145.89496 | 8981 ft | 261 kts | 243° |
| 2026-05-06 13:39 | -37.32716 | 145.87587 | 8991 ft | 261 kts | 243° |
| 2026-05-06 13:40 | -37.33714 | 145.85682 | 8984 ft | 261 kts | 243° |
| 2026-05-06 13:40 | -37.34715 | 145.83779 | 8984 ft | 261 kts | 243° |
| 2026-05-06 13:40 | -37.35700 | 145.81906 | 8987 ft | 260 kts | 243° |
| 2026-05-06 13:40 | -37.36701 | 145.79997 | 8995 ft | 261 kts | 243° |
| 2026-05-06 13:41 | -37.37697 | 145.78095 | 8990 ft | 261 kts | 243° |
| 2026-05-06 13:41 | -37.38688 | 145.76196 | 8991 ft | 259 kts | 242° |
| 2026-05-06 13:41 | -37.39673 | 145.74310 | 8995 ft | 258 kts | 243° |
| 2026-05-06 13:41 | -37.40658 | 145.72420 | 8996 ft | 258 kts | 242° |
| 2026-05-06 13:42 | -37.41643 | 145.70531 | 8998 ft | 258 kts | 242° |
| 2026-05-06 13:42 | -37.42627 | 145.68647 | 8993 ft | 258 kts | 243° |
| 2026-05-06 13:42 | -37.43617 | 145.66750 | 8997 ft | 258 kts | 243° |
| 2026-05-06 13:42 | -37.44602 | 145.64864 | 8997 ft | 259 kts | 243° |
| 2026-05-06 13:43 | -37.45573 | 145.62992 | 9004 ft | 259 kts | 243° |
| 2026-05-06 13:43 | -37.46561 | 145.61093 | 9010 ft | 258 kts | 242° |
| 2026-05-06 13:43 | -37.47547 | 145.59197 | 8998 ft | 258 kts | 242° |
| 2026-05-06 13:43 | -37.48528 | 145.57311 | 9001 ft | 258 kts | 243° |
| 2026-05-06 13:44 | -37.49513 | 145.55418 | 9001 ft | 258 kts | 242° |
| 2026-05-06 13:44 | -37.50491 | 145.53550 | 8997 ft | 258 kts | 242° |
| 2026-05-06 13:44 | -37.51470 | 145.51658 | 9003 ft | 257 kts | 241° |
| 2026-05-06 13:44 | -37.52448 | 145.49777 | 9002 ft | 255 kts | 241° |
| 2026-05-06 13:45 | -37.53417 | 145.47908 | 9011 ft | 254 kts | 242° |
| 2026-05-06 13:45 | -37.55353 | 145.44177 | 8834 ft | 254 kts | 240° |
| 2026-05-06 13:45 | -37.56315 | 145.42328 | 8501 ft | 251 kts | 239° |
| 2026-05-06 13:46 | -37.57270 | 145.40499 | 8241 ft | 249 kts | 239° |
| 2026-05-06 13:46 | -37.58221 | 145.38681 | 7962 ft | 247 kts | 239° |
| 2026-05-06 13:46 | -37.59164 | 145.36874 | 7686 ft | 246 kts | 239° |
| 2026-05-06 13:46 | -37.60102 | 145.35078 | 7415 ft | 244 kts | 238° |
| 2026-05-06 13:47 | -37.61031 | 145.33295 | 7160 ft | 242 kts | 238° |
| 2026-05-06 13:47 | -37.61939 | 145.31549 | 6890 ft | 241 kts | 238° |
| 2026-05-06 13:47 | -37.62867 | 145.29766 | 6624 ft | 239 kts | 237° |
| 2026-05-06 13:47 | -37.63762 | 145.28046 | 6348 ft | 237 kts | 237° |
| 2026-05-06 13:48 | -37.64553 | 145.26236 | 6080 ft | 236 kts | 248° |
| 2026-05-06 13:48 | -37.64951 | 145.24226 | 5841 ft | 237 kts | 257° |
| 2026-05-06 13:48 | -37.65181 | 145.22171 | 5572 ft | 236 kts | 259° |
| 2026-05-06 13:48 | -37.65385 | 145.20093 | 5312 ft | 235 kts | 259° |
| 2026-05-06 13:49 | -37.65582 | 145.18084 | 5052 ft | 233 kts | 259° |
| 2026-05-06 13:49 | -37.65785 | 145.16066 | 4793 ft | 230 kts | 259° |
| 2026-05-06 13:49 | -37.65989 | 145.14061 | 4465 ft | 230 kts | 259° |
| 2026-05-06 13:49 | -37.66196 | 145.12054 | 4053 ft | 231 kts | 260° |
| 2026-05-06 13:50 | -37.66402 | 145.10048 | 3707 ft | 228 kts | 261° |
| 2026-05-06 13:50 | -37.66600 | 145.08094 | 3555 ft | 218 kts | 261° |
| 2026-05-06 13:50 | -37.66788 | 145.06236 | 3455 ft | 209 kts | 261° |
| 2026-05-06 13:50 | -37.66969 | 145.04459 | 3389 ft | 199 kts | 261° |
| 2026-05-06 13:51 | -37.67146 | 145.02758 | 3303 ft | 191 kts | 263° |
| 2026-05-06 13:51 | -37.67151 | 145.01091 | 3062 ft | 189 kts | 270° |
| 2026-05-06 13:51 | -37.67068 | 144.99465 | 2803 ft | 181 kts | 270° |
| 2026-05-06 13:51 | -37.66986 | 144.97950 | 2572 ft | 170 kts | 270° |
| 2026-05-06 13:52 | -37.66903 | 144.96501 | 2318 ft | 162 kts | 270° |
| 2026-05-06 13:52 | -37.66824 | 144.95104 | 2089 ft | 154 kts | 269° |
| 2026-05-06 13:52 | -37.66749 | 144.93811 | 1879 ft | 141 kts | 269° |
| 2026-05-06 13:52 | -37.66681 | 144.92639 | 1701 ft | 126 kts | 269° |
| 2026-05-06 13:53 | -37.66620 | 144.91584 | 1495 ft | 115 kts | 269° |
| 2026-05-06 13:53 | -37.66562 | 144.90579 | 1340 ft | 114 kts | 270° |
| 2026-05-06 13:53 | -37.66505 | 144.89579 | 1209 ft | 116 kts | 271° |
| 2026-05-06 13:53 | -37.66461 | 144.88539 | 990 ft | 121 kts | 271° |
| 2026-05-06 13:54 | -37.66399 | 144.87496 | 792 ft | 120 kts | 273° |
| 2026-05-06 13:54 | -37.66317 | 144.86455 | 656 ft | 117 kts | 273° |
| 2026-05-06 13:54 | -37.66262 | 144.85450 | 508 ft | 112 kts | 271° |
| 2026-05-06 13:54 | -37.66200 | 144.84473 | 378 ft | 111 kts | 272° |
| 2026-05-06 13:55 | -37.66166 | 144.83766 | 395 ft | 30 kts | 273° |
| 2026-05-06 13:55 | -37.66150 | 144.83475 | 406 ft | 33 kts | 275° |
| 2026-05-06 13:55 | -37.66136 | 144.83257 | 407 ft | 17 kts | 274° |
| 2026-05-06 13:55 | -37.66134 | 144.83154 | 411 ft | 9 kts | 266° |
| 2026-05-06 13:56 | -37.66146 | 144.83042 | 413 ft | 13 kts | 258° |
| 2026-05-06 13:56 | -37.66169 | 144.82939 | 417 ft | 12 kts | 252° |
| 2026-05-06 13:56 | -37.66197 | 144.82855 | 413 ft | 10 kts | 243° |
| 2026-05-06 13:56 | -37.66229 | 144.82779 | 412 ft | 13 kts | 240° |
| 2026-05-06 13:57 | -37.66284 | 144.82699 | 410 ft | 12 kts | 214° |
| 2026-05-06 13:57 | -37.66374 | 144.82688 | 414 ft | 16 kts | 162° |
| 2026-05-06 13:57 | -37.66448 | 144.82805 | 408 ft | 20 kts | 100° |
| 2026-05-06 13:57 | -37.66458 | 144.83008 | 410 ft | 27 kts | 93° |
| 2026-05-06 13:58 | -37.66473 | 144.83269 | 401 ft | 35 kts | 94° |
| 2026-05-06 13:58 | -37.66486 | 144.83510 | 397 ft | 23 kts | 94° |
| 2026-05-06 13:58 | -37.66499 | 144.83722 | 395 ft | 23 kts | 95° |
| 2026-05-06 13:58 | -37.66520 | 144.83893 | 392 ft | 19 kts | 118° |
| 2026-05-06 13:59 | -37.66624 | 144.83956 | 388 ft | 15 kts | 172° |
| 2026-05-06 13:59 | -37.66712 | 144.83994 | 386 ft | 12 kts | 116° |
| 2026-05-06 13:59 | -37.66711 | 144.84117 | 382 ft | 16 kts | 82° |
| 2026-05-06 13:59 | -37.66692 | 144.84274 | 376 ft | 18 kts | 81° |
| 2026-05-06 14:00 | -37.66674 | 144.84423 | 367 ft | 14 kts | 82° |
| 2026-05-06 14:00 | -37.66655 | 144.84588 | 360 ft | 24 kts | 82° |
| 2026-05-06 14:00 | -37.66613 | 144.84773 | 353 ft | 22 kts | 46° |
| 2026-05-06 14:00 | -37.66539 | 144.84907 | 338 ft | 16 kts | 77° |
| 2026-05-06 14:01 | -37.66548 | 144.85034 | 335 ft | 13 kts | 131° |
| 2026-05-06 14:01 | -37.66584 | 144.85142 | 337 ft | 16 kts | 88° |
| 2026-05-06 14:01 | -37.66580 | 144.85304 | 336 ft | 17 kts | 111° |
| 2026-05-06 14:01 | -37.66611 | 144.85343 | 353 ft | 6 kts | 148° |
| 2026-05-06 14:02 | -37.66658 | 144.85365 | 349 ft | 8 kts | 167° |
| 2026-05-06 14:02 | -37.66715 | 144.85351 | 358 ft | 7 kts | 222° |
| 2026-05-06 14:02 | -37.66725 | 144.85306 | 352 ft | 4 kts | 259° |
| 2026-05-06 14:02 | -37.66729 | 144.85277 | 350 ft | 0 kts | 259° |
| 2026-05-06 14:03 | -37.66730 | 144.85271 | 350 ft | 1 kts | 261° |
| 2026-05-06 14:03 | -37.66731 | 144.85265 | 353 ft | 0 kts | 261° |